createdAt,value
2022-12-01T00:01:25.082Z,97500.44
2022-12-01T00:05:28.195Z,97487.66
2022-12-01T00:09:40.962Z,97497.03
2022-12-01T00:13:41.491Z,97471.03
2022-12-01T00:17:43.833Z,97490.72
2022-12-01T00:21:46.594Z,97490.91
2022-12-01T00:25:46.647Z,97496.59
2022-12-01T00:29:47.140Z,97478.13
2022-12-01T00:33:47.575Z,97490.31
2022-12-01T00:37:50.228Z,97466.97
2022-12-01T00:41:50.501Z,97481.56
2022-12-01T00:45:50.770Z,97493.56
2022-12-01T00:49:52.378Z,97480.56
2022-12-01T00:53:55.069Z,97504.13
2022-12-01T00:57:55.150Z,97500.91
2022-12-01T01:01:55.756Z,97496.66
2022-12-01T01:05:56.278Z,97491.16
2022-12-01T01:09:58.896Z,97505.78
2022-12-01T01:13:58.929Z,97506.16
2022-12-01T01:17:59.035Z,97495.00
2022-12-01T01:21:59.115Z,97502.72
2022-12-01T01:26:09.705Z,97498.66
2022-12-01T01:30:11.935Z,97501.31
2022-12-01T01:34:12.153Z,97505.59
2022-12-01T01:38:12.290Z,97515.72
2022-12-01T01:42:16.773Z,97499.38
2022-12-01T01:46:20.187Z,97513.13
2022-12-01T01:50:25.386Z,97515.53
2022-12-01T01:54:32.098Z,97506.56
2022-12-01T01:58:37.163Z,97522.75
2022-12-01T02:02:40.962Z,97511.53
2022-12-01T02:06:41.379Z,97493.00
2022-12-01T02:11:06.606Z,97510.88
2022-12-01T02:15:24.662Z,97513.28
2022-12-01T02:19:56.806Z,97497.47
2022-12-01T02:24:46.056Z,97497.72
2022-12-01T02:29:19.842Z,97490.75
2022-12-01T02:33:28.638Z,97493.06
2022-12-01T02:37:37.898Z,97487.41
2022-12-01T02:41:45.743Z,97498.63
2022-12-01T02:45:53.669Z,97495.00
2022-12-01T02:50:01.246Z,97503.94
2022-12-01T02:54:05.011Z,97502.72
2022-12-01T02:58:05.135Z,97506.78
2022-12-01T03:02:21.877Z,97496.41
2022-12-01T03:06:37.929Z,97499.66
2022-12-01T03:10:55.260Z,97492.34
2022-12-01T03:15:08.187Z,97481.59
2022-12-01T03:19:16.339Z,97484.03
2022-12-01T03:23:26.752Z,97484.63
2022-12-01T03:27:32.763Z,97493.78
2022-12-01T03:31:41.064Z,97481.59
2022-12-01T03:35:48.857Z,97487.69
2022-12-01T03:40:00.308Z,97474.28
2022-12-01T03:44:11.224Z,97479.91
2022-12-01T03:48:11.820Z,97473.84
2022-12-01T03:52:27.090Z,97467.50
2022-12-01T03:56:36.459Z,97447.78
2022-12-01T04:00:37.210Z,97448.59
2022-12-01T04:04:37.566Z,97458.94
2022-12-01T04:08:38.023Z,97409.59
2022-12-01T04:12:40.635Z,97468.03
2022-12-01T04:16:40.718Z,97472.91
2022-12-01T04:20:40.863Z,97480.25
2022-12-01T04:24:41.044Z,97476.16
2022-12-01T04:28:43.701Z,97470.44
2022-12-01T04:32:46.324Z,97466.09
2022-12-01T04:36:46.439Z,97473.28
2022-12-01T04:40:46.578Z,97469.38
2022-12-01T04:44:49.223Z,97470.06
2022-12-01T04:48:49.401Z,97461.91
2022-12-01T04:52:49.454Z,97464.31
2022-12-01T04:56:49.573Z,97457.88
2022-12-01T05:00:52.335Z,97454.22
2022-12-01T05:04:52.420Z,97464.41
2022-12-01T05:08:53.865Z,97465.97
2022-12-01T05:12:55.263Z,97462.09
2022-12-01T05:16:58.366Z,97440.88
2022-12-01T05:21:01.362Z,97469.13
2022-12-01T05:25:01.911Z,97481.97
2022-12-01T05:29:02.134Z,97482.38
2022-12-01T05:33:04.804Z,97481.59
2022-12-01T05:37:05.687Z,97481.00
2022-12-01T05:41:06.245Z,97486.25
2022-12-01T05:45:07.171Z,97467.31
2022-12-01T05:49:09.899Z,97471.38
2022-12-01T05:53:10.507Z,97488.22
2022-12-01T05:57:10.647Z,97489.66
2022-12-01T06:01:10.905Z,97480.72
2022-12-01T06:05:14.374Z,97475.88
2022-12-01T06:09:14.424Z,97476.63
2022-12-01T06:13:14.695Z,97490.03
2022-12-01T06:17:15.144Z,97477.84
2022-12-01T06:21:18.106Z,97479.47
2022-12-01T06:25:18.358Z,97477.47
2022-12-01T06:29:18.512Z,97487.25
2022-12-01T06:33:18.757Z,97489.72
2022-12-01T06:37:21.517Z,97492.53
2022-12-01T06:41:21.622Z,97495.34
2022-12-01T06:45:22.269Z,97495.72
2022-12-01T06:49:23.421Z,97494.47
2022-12-01T06:53:27.447Z,97507.19
2022-12-01T06:57:27.912Z,97468.00
2022-12-01T07:01:28.571Z,97506.59
2022-12-01T07:05:29.455Z,97498.53
2022-12-01T07:09:32.173Z,97499.56
2022-12-01T07:13:34.159Z,97497.34
2022-12-01T07:17:34.631Z,97507.91
2022-12-01T07:21:34.734Z,97506.88
2022-12-01T07:25:37.375Z,97512.75
2022-12-01T07:29:37.440Z,97502.63
2022-12-01T07:33:38.408Z,97489.22
2022-12-01T07:37:38.548Z,97501.69
2022-12-01T07:41:41.243Z,97511.66
2022-12-01T07:45:41.412Z,97516.94
2022-12-01T07:49:41.579Z,97514.44
2022-12-01T07:53:42.216Z,97497.53
2022-12-01T07:57:44.890Z,97525.28
2022-12-01T08:01:46.076Z,97489.16
2022-12-01T08:05:46.462Z,97512.47
2022-12-01T08:09:47.662Z,97498.94
2022-12-01T08:13:50.993Z,97526.03
2022-12-01T08:17:51.045Z,97511.72
2022-12-01T08:21:51.123Z,97517.94
2022-12-01T08:25:52.525Z,97494.69
2022-12-01T08:29:55.218Z,97517.13
2022-12-01T08:33:56.081Z,97509.81
2022-12-01T08:37:57.394Z,97525.34
2022-12-01T08:41:57.565Z,97515.13
2022-12-01T08:46:01.500Z,97510.06
2022-12-01T08:50:01.544Z,97518.13
2022-12-01T08:54:04.582Z,97476.50
2022-12-01T08:58:04.742Z,97488.28
2022-12-01T09:02:10.941Z,97513.19
2022-12-01T09:06:16.749Z,97527.59
2022-12-01T09:10:16.880Z,97518.97
2022-12-01T09:14:20.018Z,97524.25
2022-12-01T09:18:22.722Z,97518.88
2022-12-01T09:22:22.871Z,97523.75
2022-12-01T09:26:23.818Z,97521.94
2022-12-01T09:30:24.079Z,97527.34
2022-12-01T09:34:28.120Z,97532.09
2022-12-01T09:38:28.495Z,97526.50
2022-12-01T09:42:33.913Z,97513.56
2022-12-01T09:46:44.026Z,97501.88
2022-12-01T09:50:47.060Z,97523.34
2022-12-01T09:54:47.992Z,97509.22
2022-12-01T09:58:50.868Z,97510.84
2022-12-01T10:02:59.720Z,97501.13
2022-12-01T10:07:07.908Z,97500.09
2022-12-01T10:11:24.597Z,97477.78
2022-12-01T10:15:49.168Z,97481.94
2022-12-01T10:20:01.223Z,97488.28
2022-12-01T10:24:36.559Z,97490.75
2022-12-01T10:29:10.768Z,97477.22
2022-12-01T10:33:25.289Z,97466.19
2022-12-01T10:37:29.974Z,97478.09
2022-12-01T10:41:39.229Z,97468.31
2022-12-01T10:45:46.677Z,97460.19
2022-12-01T10:49:47.017Z,97470.38
2022-12-01T10:53:47.165Z,97449.06
2022-12-01T10:57:50.176Z,97463.25
2022-12-01T11:01:51.436Z,97445.28
2022-12-01T11:05:58.242Z,97466.44
2022-12-01T11:10:20.208Z,97458.63
2022-12-01T11:14:36.956Z,97456.91
2022-12-01T11:18:39.724Z,97443.34
2022-12-01T11:22:39.794Z,97405.94
2022-12-01T11:26:40.110Z,97456.38
2022-12-01T11:30:42.959Z,97450.94
2022-12-01T11:34:43.114Z,97444.72
2022-12-01T11:38:43.416Z,97433.47
2022-12-01T11:42:44.254Z,97438.72
2022-12-01T11:46:55.750Z,97421.66
2022-12-01T11:51:13.918Z,97388.88
2022-12-01T11:55:25.877Z,97416.47
2022-12-01T11:59:28.622Z,97426.06
2022-12-01T12:03:44.678Z,97432.56
2022-12-01T12:08:01.484Z,97418.69
2022-12-01T12:12:20.418Z,97434.22
2022-12-01T12:16:33.739Z,97431.47
2022-12-01T12:21:01.616Z,97424.19
2022-12-01T12:25:22.890Z,97416.56
2022-12-01T12:29:46.075Z,97416.94
2022-12-01T12:34:23.640Z,97419.06
2022-12-01T12:38:51.100Z,97414.50
2022-12-01T12:43:21.186Z,97413.53
2022-12-01T12:47:51.648Z,97411.22
2022-12-01T12:52:02.588Z,97400.28
2022-12-01T12:56:16.798Z,97395.59
2022-12-01T13:00:22.267Z,97408.38
2022-12-01T13:04:30.341Z,97403.94
2022-12-01T13:08:37.216Z,97407.00
2022-12-01T13:12:48.568Z,97389.91
2022-12-01T13:16:52.775Z,97391.59
2022-12-01T13:20:57.040Z,97397.69
2022-12-01T13:24:57.327Z,97394.03
2022-12-01T13:29:01.599Z,97388.28
2022-12-01T13:33:05.104Z,97386.75
2022-12-01T13:37:05.345Z,97388.00
2022-12-01T13:41:28.858Z,97390.00
2022-12-01T13:45:35.613Z,97404.47
2022-12-01T13:49:44.052Z,97383.88
2022-12-01T13:54:07.956Z,97394.97
2022-12-01T13:58:45.732Z,97400.66
2022-12-01T14:02:48.472Z,97399.03
2022-12-01T14:06:52.523Z,97367.56
2022-12-01T14:10:59.609Z,97394.59
2022-12-01T14:15:05.034Z,97384.88
2022-12-01T14:19:07.871Z,97392.00
2022-12-01T14:23:19.000Z,97389.19
2022-12-01T14:27:36.095Z,97389.03
2022-12-01T14:32:21.039Z,97385.97
2022-12-01T14:36:43.822Z,97384.63
2022-12-01T14:40:44.699Z,97383.03
2022-12-01T14:44:51.734Z,97382.59
2022-12-01T14:48:53.451Z,97377.88
2022-12-01T14:53:04.409Z,97379.81
2022-12-01T14:57:11.113Z,97348.97
2022-12-01T15:01:16.851Z,97353.72
2022-12-01T15:05:20.484Z,97346.50
2022-12-01T15:09:34.469Z,97373.41
2022-12-01T15:13:44.935Z,97362.47
2022-12-01T15:17:45.033Z,97355.22
2022-12-01T15:21:45.153Z,97368.66
2022-12-01T15:25:49.458Z,97367.47
2022-12-01T15:29:50.109Z,97374.16
2022-12-01T15:33:55.792Z,97315.34
2022-12-01T15:37:57.419Z,97375.38
2022-12-01T15:42:01.033Z,97370.94
2022-12-01T15:46:05.108Z,97377.38
2022-12-01T15:50:07.166Z,97378.34
2022-12-01T15:54:07.847Z,97377.66
2022-12-01T15:58:22.721Z,97382.03
2022-12-01T16:02:33.378Z,97378.59
2022-12-01T16:06:39.279Z,97379.31
2022-12-01T16:10:40.362Z,97376.97
2022-12-01T16:14:54.033Z,97370.25
2022-12-01T16:18:59.314Z,97373.16
2022-12-01T16:23:02.930Z,97373.28
2022-12-01T16:27:07.154Z,97359.41
2022-12-01T16:31:20.881Z,97353.63
2022-12-01T16:35:27.922Z,97380.91
2022-12-01T16:39:27.999Z,97384.03
2022-12-01T16:43:30.824Z,97387.41
2022-12-01T16:47:35.693Z,97382.84
2022-12-01T16:51:54.832Z,97377.91
2022-12-01T16:55:58.057Z,97388.66
2022-12-01T16:59:58.122Z,97391.09
2022-12-01T17:04:06.060Z,97389.25
2022-12-01T17:08:08.693Z,97408.44
2022-12-01T17:12:09.799Z,97416.03
2022-12-01T17:16:18.117Z,97410.72
2022-12-01T17:20:21.830Z,97415.13
2022-12-01T17:24:21.982Z,97410.13
2022-12-01T17:28:22.475Z,97416.25
2022-12-01T17:32:22.697Z,97408.75
2022-12-01T17:36:25.684Z,97381.47
2022-12-01T17:40:25.809Z,97404.47
2022-12-01T17:44:26.306Z,97410.16
2022-12-01T17:48:26.476Z,97408.09
2022-12-01T17:52:29.310Z,97392.94
2022-12-01T17:56:29.596Z,97408.91
2022-12-01T18:00:30.024Z,97408.41
2022-12-01T18:04:30.589Z,97421.78
2022-12-01T18:08:38.366Z,97424.16
2022-12-01T18:12:38.460Z,97428.56
2022-12-01T18:16:38.645Z,97425.78
2022-12-01T18:20:43.720Z,97413.63
2022-12-01T18:24:46.618Z,97432.09
2022-12-01T18:28:47.396Z,97426.88
2022-12-01T18:32:47.851Z,97421.50
2022-12-01T18:36:48.289Z,97398.25
2022-12-01T18:40:50.970Z,97435.06
2022-12-01T18:44:51.439Z,97433.66
2022-12-01T18:48:54.423Z,97432.63
2022-12-01T18:52:54.542Z,97412.25
2022-12-01T18:56:59.018Z,97405.97
2022-12-01T19:00:59.259Z,97428.44
2022-12-01T19:04:59.965Z,97426.66
2022-12-01T19:09:05.413Z,97405.09
2022-12-01T19:13:08.552Z,97430.06
2022-12-01T19:17:09.013Z,97432.41
2022-12-01T19:21:12.088Z,97430.41
2022-12-01T19:25:13.536Z,97419.72
2022-12-01T19:29:16.529Z,97391.97
2022-12-01T19:33:16.658Z,97411.84
2022-12-01T19:37:16.851Z,97372.59
2022-12-01T19:41:20.405Z,97400.75
2022-12-01T19:45:23.206Z,97365.97
2022-12-01T19:49:23.601Z,97413.09
2022-12-01T19:53:23.757Z,97389.38
2022-12-01T19:57:24.399Z,97407.63
2022-12-01T20:01:28.172Z,97416.34
2022-12-01T20:05:28.454Z,97431.91
2022-12-01T20:09:28.591Z,97418.38
2022-12-01T20:13:39.176Z,97428.72
2022-12-01T20:17:45.289Z,97415.75
2022-12-01T20:21:47.129Z,97388.63
2022-12-01T20:25:58.978Z,97399.56
2022-12-01T20:30:01.722Z,97441.69
2022-12-01T20:34:15.363Z,97451.28
2022-12-01T20:38:17.269Z,97387.00
2022-12-01T20:58:43.992Z,97400.09
2022-12-01T21:02:51.404Z,97317.63
2022-12-01T21:06:54.108Z,97359.09
2022-12-01T21:10:59.179Z,97343.75
2022-12-01T21:26:41.665Z,97119.50
2022-12-01T21:30:45.142Z,97415.56
2022-12-01T21:34:48.489Z,97385.00
2022-12-01T21:38:55.341Z,97368.19
2022-12-01T21:59:45.104Z,97440.00
2022-12-01T22:04:49.169Z,97080.16
2022-12-01T22:09:34.488Z,97195.06
2022-12-01T22:14:08.706Z,97172.63
2022-12-01T22:18:26.160Z,97382.66
2022-12-01T22:22:29.072Z,97358.38
2022-12-01T22:26:29.797Z,97405.69
2022-12-01T22:30:29.913Z,97353.91
2022-12-01T22:34:32.701Z,97400.22
2022-12-01T22:38:40.033Z,97388.00
2022-12-01T22:42:40.875Z,97384.72
2022-12-01T22:46:42.523Z,97371.25
2022-12-01T22:50:51.329Z,97392.00
2022-12-01T22:54:53.113Z,97391.09
2022-12-01T22:58:53.473Z,97387.69
2022-12-01T23:02:58.324Z,97384.22
2022-12-01T23:07:20.160Z,97377.00
2022-12-01T23:11:20.352Z,97383.69
2022-12-01T23:15:34.211Z,97378.22
2022-12-01T23:19:35.728Z,97376.47
2022-12-01T23:23:40.528Z,97373.59
2022-12-01T23:27:41.336Z,97346.44
2022-12-01T23:31:41.758Z,97364.44
2022-12-01T23:35:49.006Z,97359.13
2022-12-01T23:39:53.601Z,97357.97
2022-12-01T23:43:53.951Z,97353.41
2022-12-01T23:47:57.208Z,97346.03
2022-12-01T23:52:00.347Z,97344.31
2022-12-01T23:56:12.940Z,97349.25
